sensor_id;sensor_type;location;lat;lon;timestamp;temperature;humidity
32522;DHT22;18963;51.504;5.316;2023-05-10T00:00:38;12.50;99.90
32522;DHT22;18963;51.504;5.316;2023-05-10T00:03:04;12.50;99.90
32522;DHT22;18963;51.504;5.316;2023-05-10T00:05:30;12.50;99.90
32522;DHT22;18963;51.504;5.316;2023-05-10T00:07:56;12.50;99.90
32522;DHT22;18963;51.504;5.316;2023-05-10T00:10:22;12.50;99.90
32522;DHT22;18963;51.504;5.316;2023-05-10T00:12:47;12.40;99.90
32522;DHT22;18963;51.504;5.316;2023-05-10T00:15:13;12.40;99.90
32522;DHT22;18963;51.504;5.316;2023-05-10T00:17:38;12.40;99.90
32522;DHT22;18963;51.504;5.316;2023-05-10T00:20:05;12.30;99.90
32522;DHT22;18963;51.504;5.316;2023-05-10T00:22:31;12.30;99.90
32522;DHT22;18963;51.504;5.316;2023-05-10T00:24:57;12.20;99.90
32522;DHT22;18963;51.504;5.316;2023-05-10T00:27:23;12.20;99.90
32522;DHT22;18963;51.504;5.316;2023-05-10T00:29:48;12.20;99.90
32522;DHT22;18963;51.504;5.316;2023-05-10T00:32:14;12.10;99.90
32522;DHT22;18963;51.504;5.316;2023-05-10T00:34:40;12.10;99.90
32522;DHT22;18963;51.504;5.316;2023-05-10T00:37:06;12.20;99.90
32522;DHT22;18963;51.504;5.316;2023-05-10T00:39:31;12.10;99.90
32522;DHT22;18963;51.504;5.316;2023-05-10T00:41:57;12.10;99.90
32522;DHT22;18963;51.504;5.316;2023-05-10T00:44:22;12.20;99.90
32522;DHT22;18963;51.504;5.316;2023-05-10T00:46:48;12.20;99.90
32522;DHT22;18963;51.504;5.316;2023-05-10T00:49:14;12.20;99.90
32522;DHT22;18963;51.504;5.316;2023-05-10T00:51:40;12.30;99.90
32522;DHT22;18963;51.504;5.316;2023-05-10T00:54:09;12.30;99.90
32522;DHT22;18963;51.504;5.316;2023-05-10T00:56:36;12.30;99.90
32522;DHT22;18963;51.504;5.316;2023-05-10T00:59:02;12.30;99.90
32522;DHT22;18963;51.504;5.316;2023-05-10T01:01:28;12.40;99.90
32522;DHT22;18963;51.504;5.316;2023-05-10T01:03:54;12.40;99.90
32522;DHT22;18963;51.504;5.316;2023-05-10T01:06:20;12.40;99.90
32522;DHT22;18963;51.504;5.316;2023-05-10T01:08:46;12.40;99.90
32522;DHT22;18963;51.504;5.316;2023-05-10T01:11:13;12.40;99.90
32522;DHT22;18963;51.504;5.316;2023-05-10T01:13:42;12.50;99.90
32522;DHT22;18963;51.504;5.316;2023-05-10T01:16:08;12.50;99.90
32522;DHT22;18963;51.504;5.316;2023-05-10T01:18:39;12.50;99.90
32522;DHT22;18963;51.504;5.316;2023-05-10T01:21:17;12.50;99.90
32522;DHT22;18963;51.504;5.316;2023-05-10T01:32:08;12.50;99.90
32522;DHT22;18963;51.504;5.316;2023-05-10T01:35:04;12.50;99.90
32522;DHT22;18963;51.504;5.316;2023-05-10T01:37:42;12.50;99.90
32522;DHT22;18963;51.504;5.316;2023-05-10T01:40:26;12.50;99.90
32522;DHT22;18963;51.504;5.316;2023-05-10T01:43:04;12.50;99.90
32522;DHT22;18963;51.504;5.316;2023-05-10T01:48:13;12.50;99.90
32522;DHT22;18963;51.504;5.316;2023-05-10T01:50:43;12.50;99.90
32522;DHT22;18963;51.504;5.316;2023-05-10T01:53:10;12.50;99.90
32522;DHT22;18963;51.504;5.316;2023-05-10T01:55:44;12.50;99.90
32522;DHT22;18963;51.504;5.316;2023-05-10T01:58:14;12.50;99.90
32522;DHT22;18963;51.504;5.316;2023-05-10T02:00:43;12.50;99.90
32522;DHT22;18963;51.504;5.316;2023-05-10T02:03:10;12.50;99.90
32522;DHT22;18963;51.504;5.316;2023-05-10T02:05:37;12.50;99.90
32522;DHT22;18963;51.504;5.316;2023-05-10T02:08:06;12.50;99.90
32522;DHT22;18963;51.504;5.316;2023-05-10T02:10:36;12.50;99.90
32522;DHT22;18963;51.504;5.316;2023-05-10T02:13:03;12.50;99.90
32522;DHT22;18963;51.504;5.316;2023-05-10T02:15:30;12.50;99.90
32522;DHT22;18963;51.504;5.316;2023-05-10T02:17:57;12.50;99.90
32522;DHT22;18963;51.504;5.316;2023-05-10T02:20:24;12.50;99.90
32522;DHT22;18963;51.504;5.316;2023-05-10T02:22:52;12.50;99.90
32522;DHT22;18963;51.504;5.316;2023-05-10T02:25:21;12.50;99.90
32522;DHT22;18963;51.504;5.316;2023-05-10T02:27:48;12.50;99.90
32522;DHT22;18963;51.504;5.316;2023-05-10T02:30:15;12.50;99.90
32522;DHT22;18963;51.504;5.316;2023-05-10T02:32:41;12.50;99.90
32522;DHT22;18963;51.504;5.316;2023-05-10T02:35:08;12.50;99.90
32522;DHT22;18963;51.504;5.316;2023-05-10T02:37:36;12.50;99.90
32522;DHT22;18963;51.504;5.316;2023-05-10T02:40:04;12.50;99.90
32522;DHT22;18963;51.504;5.316;2023-05-10T02:42:33;12.50;99.90
32522;DHT22;18963;51.504;5.316;2023-05-10T02:45:01;12.50;99.90
32522;DHT22;18963;51.504;5.316;2023-05-10T02:47:28;12.50;99.90
32522;DHT22;18963;51.504;5.316;2023-05-10T02:49:54;12.50;99.90
32522;DHT22;18963;51.504;5.316;2023-05-10T02:52:25;12.50;99.90
32522;DHT22;18963;51.504;5.316;2023-05-10T02:54:54;12.50;99.90
32522;DHT22;18963;51.504;5.316;2023-05-10T02:57:26;12.50;99.90
32522;DHT22;18963;51.504;5.316;2023-05-10T02:59:52;12.50;99.90
32522;DHT22;18963;51.504;5.316;2023-05-10T03:02:18;12.60;99.90
32522;DHT22;18963;51.504;5.316;2023-05-10T03:04:44;12.60;99.90
32522;DHT22;18963;51.504;5.316;2023-05-10T03:07:10;12.60;99.90
32522;DHT22;18963;51.504;5.316;2023-05-10T03:09:36;12.60;99.90
32522;DHT22;18963;51.504;5.316;2023-05-10T03:20:31;12.60;99.90
32522;DHT22;18963;51.504;5.316;2023-05-10T03:23:04;12.60;99.90
32522;DHT22;18963;51.504;5.316;2023-05-10T03:25:31;12.60;99.90
32522;DHT22;18963;51.504;5.316;2023-05-10T03:27:58;12.60;99.90
32522;DHT22;18963;51.504;5.316;2023-05-10T03:30:24;12.60;99.90
32522;DHT22;18963;51.504;5.316;2023-05-10T03:32:50;12.60;99.90
32522;DHT22;18963;51.504;5.316;2023-05-10T03:35:16;12.60;99.90
32522;DHT22;18963;51.504;5.316;2023-05-10T03:37:42;12.60;99.90
32522;DHT22;18963;51.504;5.316;2023-05-10T03:40:09;12.60;99.90
32522;DHT22;18963;51.504;5.316;2023-05-10T03:42:35;12.60;99.90
32522;DHT22;18963;51.504;5.316;2023-05-10T03:45:01;12.60;99.90
32522;DHT22;18963;51.504;5.316;2023-05-10T03:47:26;12.50;99.90
32522;DHT22;18963;51.504;5.316;2023-05-10T03:49:52;12.60;99.90
32522;DHT22;18963;51.504;5.316;2023-05-10T03:52:17;12.50;99.90
32522;DHT22;18963;51.504;5.316;2023-05-10T03:54:43;12.50;99.90
32522;DHT22;18963;51.504;5.316;2023-05-10T03:57:09;12.60;99.90
32522;DHT22;18963;51.504;5.316;2023-05-10T03:59:35;12.60;99.90
32522;DHT22;18963;51.504;5.316;2023-05-10T04:02:00;12.50;99.90
32522;DHT22;18963;51.504;5.316;2023-05-10T04:04:26;12.50;99.90
32522;DHT22;18963;51.504;5.316;2023-05-10T04:06:51;12.50;99.90
32522;DHT22;18963;51.504;5.316;2023-05-10T04:09:17;12.50;99.90
32522;DHT22;18963;51.504;5.316;2023-05-10T04:11:43;12.50;99.90
32522;DHT22;18963;51.504;5.316;2023-05-10T04:14:09;12.50;99.90
32522;DHT22;18963;51.504;5.316;2023-05-10T04:16:34;12.50;99.90
32522;DHT22;18963;51.504;5.316;2023-05-10T04:19:00;12.40;99.90
32522;DHT22;18963;51.504;5.316;2023-05-10T04:21:26;12.40;99.90
32522;DHT22;18963;51.504;5.316;2023-05-10T04:23:51;12.40;99.90
32522;DHT22;18963;51.504;5.316;2023-05-10T04:26:17;12.40;99.90
32522;DHT22;18963;51.504;5.316;2023-05-10T04:28:42;12.40;99.90
32522;DHT22;18963;51.504;5.316;2023-05-10T04:31:09;12.30;99.90
32522;DHT22;18963;51.504;5.316;2023-05-10T04:33:35;12.30;99.90
32522;DHT22;18963;51.504;5.316;2023-05-10T04:36:01;12.30;99.90
32522;DHT22;18963;51.504;5.316;2023-05-10T04:38:27;12.30;99.90
32522;DHT22;18963;51.504;5.316;2023-05-10T04:40:53;12.20;99.90
32522;DHT22;18963;51.504;5.316;2023-05-10T04:43:19;12.20;99.90
32522;DHT22;18963;51.504;5.316;2023-05-10T04:45:45;12.20;99.90
32522;DHT22;18963;51.504;5.316;2023-05-10T04:48:11;12.20;99.90
32522;DHT22;18963;51.504;5.316;2023-05-10T04:50:37;12.20;99.90
32522;DHT22;18963;51.504;5.316;2023-05-10T04:53:04;12.20;99.90
32522;DHT22;18963;51.504;5.316;2023-05-10T04:55:29;12.10;99.90
32522;DHT22;18963;51.504;5.316;2023-05-10T04:57:55;12.10;99.90
32522;DHT22;18963;51.504;5.316;2023-05-10T05:00:22;12.10;99.90
32522;DHT22;18963;51.504;5.316;2023-05-10T05:02:48;12.10;99.90
32522;DHT22;18963;51.504;5.316;2023-05-10T05:05:14;12.10;99.90
32522;DHT22;18963;51.504;5.316;2023-05-10T05:07:40;12.20;99.90
32522;DHT22;18963;51.504;5.316;2023-05-10T05:10:07;12.20;99.90
32522;DHT22;18963;51.504;5.316;2023-05-10T05:12:33;12.20;99.90
32522;DHT22;18963;51.504;5.316;2023-05-10T05:14:58;12.20;99.90
32522;DHT22;18963;51.504;5.316;2023-05-10T05:17:24;12.20;99.90
32522;DHT22;18963;51.504;5.316;2023-05-10T05:19:49;12.20;99.90
32522;DHT22;18963;51.504;5.316;2023-05-10T05:22:15;12.30;99.90
32522;DHT22;18963;51.504;5.316;2023-05-10T05:24:41;12.20;99.90
32522;DHT22;18963;51.504;5.316;2023-05-10T05:27:06;12.30;99.90
32522;DHT22;18963;51.504;5.316;2023-05-10T05:29:32;12.30;99.90
32522;DHT22;18963;51.504;5.316;2023-05-10T05:31:58;12.30;99.90
32522;DHT22;18963;51.504;5.316;2023-05-10T05:34:24;12.30;99.90
32522;DHT22;18963;51.504;5.316;2023-05-10T05:36:49;12.30;99.90
32522;DHT22;18963;51.504;5.316;2023-05-10T05:39:15;12.30;99.90
32522;DHT22;18963;51.504;5.316;2023-05-10T05:41:41;12.30;99.90
32522;DHT22;18963;51.504;5.316;2023-05-10T05:44:07;12.40;99.90
32522;DHT22;18963;51.504;5.316;2023-05-10T05:46:33;12.40;99.90
32522;DHT22;18963;51.504;5.316;2023-05-10T05:48:59;12.40;99.90
32522;DHT22;18963;51.504;5.316;2023-05-10T05:51:24;12.50;99.90
32522;DHT22;18963;51.504;5.316;2023-05-10T05:53:50;12.50;99.90
32522;DHT22;18963;51.504;5.316;2023-05-10T05:56:16;12.60;99.90
32522;DHT22;18963;51.504;5.316;2023-05-10T05:58:42;12.60;99.90
32522;DHT22;18963;51.504;5.316;2023-05-10T06:01:08;12.60;99.90
32522;DHT22;18963;51.504;5.316;2023-05-10T06:03:34;12.70;99.90
32522;DHT22;18963;51.504;5.316;2023-05-10T06:06:00;12.70;99.90
32522;DHT22;18963;51.504;5.316;2023-05-10T06:08:25;12.80;99.90
32522;DHT22;18963;51.504;5.316;2023-05-10T06:10:51;12.80;99.90
32522;DHT22;18963;51.504;5.316;2023-05-10T06:13:16;12.80;99.90
32522;DHT22;18963;51.504;5.316;2023-05-10T06:15:42;12.90;99.90
32522;DHT22;18963;51.504;5.316;2023-05-10T06:18:08;12.90;99.90
32522;DHT22;18963;51.504;5.316;2023-05-10T06:20:33;13.00;99.90
32522;DHT22;18963;51.504;5.316;2023-05-10T06:22:59;13.00;99.90
32522;DHT22;18963;51.504;5.316;2023-05-10T06:25:24;13.10;99.90
32522;DHT22;18963;51.504;5.316;2023-05-10T06:27:50;13.20;99.90
32522;DHT22;18963;51.504;5.316;2023-05-10T06:30:16;13.20;99.90
32522;DHT22;18963;51.504;5.316;2023-05-10T06:32:41;13.30;99.90
32522;DHT22;18963;51.504;5.316;2023-05-10T06:35:09;13.30;99.90
32522;DHT22;18963;51.504;5.316;2023-05-10T06:37:34;13.30;99.90
32522;DHT22;18963;51.504;5.316;2023-05-10T06:40:00;13.40;99.90
32522;DHT22;18963;51.504;5.316;2023-05-10T06:42:27;13.40;99.90
32522;DHT22;18963;51.504;5.316;2023-05-10T06:44:52;13.40;99.90
32522;DHT22;18963;51.504;5.316;2023-05-10T06:47:18;13.50;99.90
32522;DHT22;18963;51.504;5.316;2023-05-10T06:49:44;13.50;99.90
32522;DHT22;18963;51.504;5.316;2023-05-10T06:52:09;13.50;99.90
32522;DHT22;18963;51.504;5.316;2023-05-10T06:54:35;13.50;99.90
32522;DHT22;18963;51.504;5.316;2023-05-10T06:57:00;13.50;99.90
32522;DHT22;18963;51.504;5.316;2023-05-10T06:59:28;13.40;99.90
32522;DHT22;18963;51.504;5.316;2023-05-10T07:01:53;13.40;99.90
32522;DHT22;18963;51.504;5.316;2023-05-10T07:04:19;13.40;99.90
32522;DHT22;18963;51.504;5.316;2023-05-10T07:06:45;13.30;99.90
32522;DHT22;18963;51.504;5.316;2023-05-10T07:09:11;13.40;99.90
32522;DHT22;18963;51.504;5.316;2023-05-10T07:11:38;13.40;99.90
32522;DHT22;18963;51.504;5.316;2023-05-10T07:14:04;13.40;99.90
32522;DHT22;18963;51.504;5.316;2023-05-10T07:16:29;13.40;99.90
32522;DHT22;18963;51.504;5.316;2023-05-10T07:18:55;13.40;99.90
32522;DHT22;18963;51.504;5.316;2023-05-10T07:21:20;13.40;99.90
32522;DHT22;18963;51.504;5.316;2023-05-10T07:23:49;13.40;99.90
32522;DHT22;18963;51.504;5.316;2023-05-10T07:26:15;13.40;99.90
32522;DHT22;18963;51.504;5.316;2023-05-10T07:28:41;13.40;99.90
32522;DHT22;18963;51.504;5.316;2023-05-10T07:31:06;13.40;99.90
32522;DHT22;18963;51.504;5.316;2023-05-10T07:33:32;13.50;99.90
32522;DHT22;18963;51.504;5.316;2023-05-10T07:35:58;13.50;99.90
32522;DHT22;18963;51.504;5.316;2023-05-10T07:38:23;13.50;99.90
32522;DHT22;18963;51.504;5.316;2023-05-10T07:40:49;13.50;99.90
32522;DHT22;18963;51.504;5.316;2023-05-10T07:43:14;13.50;99.90
32522;DHT22;18963;51.504;5.316;2023-05-10T07:45:40;13.50;99.90
32522;DHT22;18963;51.504;5.316;2023-05-10T07:48:05;13.50;99.90
32522;DHT22;18963;51.504;5.316;2023-05-10T07:50:31;13.50;99.90
32522;DHT22;18963;51.504;5.316;2023-05-10T07:52:56;13.50;99.90
32522;DHT22;18963;51.504;5.316;2023-05-10T07:55:22;13.50;99.90
32522;DHT22;18963;51.504;5.316;2023-05-10T07:57:48;13.50;99.90
32522;DHT22;18963;51.504;5.316;2023-05-10T08:00:17;13.50;99.90
32522;DHT22;18963;51.504;5.316;2023-05-10T08:02:43;13.60;99.90
32522;DHT22;18963;51.504;5.316;2023-05-10T08:05:09;13.60;99.90
32522;DHT22;18963;51.504;5.316;2023-05-10T08:07:35;13.60;99.90
32522;DHT22;18963;51.504;5.316;2023-05-10T08:10:01;13.70;99.90
32522;DHT22;18963;51.504;5.316;2023-05-10T08:12:27;13.80;99.90
32522;DHT22;18963;51.504;5.316;2023-05-10T08:14:52;13.80;99.90
32522;DHT22;18963;51.504;5.316;2023-05-10T08:17:18;13.90;99.90
32522;DHT22;18963;51.504;5.316;2023-05-10T08:19:44;13.90;99.90
32522;DHT22;18963;51.504;5.316;2023-05-10T08:22:09;14.00;99.90
32522;DHT22;18963;51.504;5.316;2023-05-10T08:24:35;14.10;99.90
32522;DHT22;18963;51.504;5.316;2023-05-10T08:27:07;14.20;99.90
32522;DHT22;18963;51.504;5.316;2023-05-10T08:29:33;14.40;99.90
32522;DHT22;18963;51.504;5.316;2023-05-10T08:31:58;14.60;99.90
32522;DHT22;18963;51.504;5.316;2023-05-10T08:34:24;14.90;99.90
32522;DHT22;18963;51.504;5.316;2023-05-10T08:36:50;15.50;99.90
32522;DHT22;18963;51.504;5.316;2023-05-10T08:39:15;16.00;99.90
32522;DHT22;18963;51.504;5.316;2023-05-10T08:41:44;16.30;99.90
32522;DHT22;18963;51.504;5.316;2023-05-10T08:44:10;16.60;99.90
32522;DHT22;18963;51.504;5.316;2023-05-10T08:46:37;16.80;99.90
32522;DHT22;18963;51.504;5.316;2023-05-10T08:49:06;17.10;99.90
32522;DHT22;18963;51.504;5.316;2023-05-10T08:51:36;17.30;99.90
32522;DHT22;18963;51.504;5.316;2023-05-10T08:54:03;17.30;99.90
32522;DHT22;18963;51.504;5.316;2023-05-10T08:56:29;17.30;99.90
32522;DHT22;18963;51.504;5.316;2023-05-10T08:58:55;17.30;99.90
32522;DHT22;18963;51.504;5.316;2023-05-10T09:01:21;17.30;99.90
32522;DHT22;18963;51.504;5.316;2023-05-10T09:03:48;17.40;99.90
32522;DHT22;18963;51.504;5.316;2023-05-10T09:06:14;17.50;99.90
32522;DHT22;18963;51.504;5.316;2023-05-10T09:08:41;17.70;99.90
32522;DHT22;18963;51.504;5.316;2023-05-10T09:11:09;17.80;99.90
32522;DHT22;18963;51.504;5.316;2023-05-10T09:13:35;17.90;99.90
32522;DHT22;18963;51.504;5.316;2023-05-10T09:16:03;18.00;99.90
32522;DHT22;18963;51.504;5.316;2023-05-10T09:18:29;18.20;99.90
32522;DHT22;18963;51.504;5.316;2023-05-10T09:20:54;18.30;99.90
32522;DHT22;18963;51.504;5.316;2023-05-10T09:23:20;18.30;99.90
32522;DHT22;18963;51.504;5.316;2023-05-10T09:25:46;18.20;99.90
32522;DHT22;18963;51.504;5.316;2023-05-10T09:28:12;18.20;99.90
32522;DHT22;18963;51.504;5.316;2023-05-10T09:30:38;18.10;99.90
32522;DHT22;18963;51.504;5.316;2023-05-10T09:33:04;18.10;99.90
32522;DHT22;18963;51.504;5.316;2023-05-10T09:35:31;18.00;99.90
32522;DHT22;18963;51.504;5.316;2023-05-10T09:38:02;17.80;99.90
32522;DHT22;18963;51.504;5.316;2023-05-10T09:40:29;17.50;99.90
32522;DHT22;18963;51.504;5.316;2023-05-10T09:43:03;17.30;99.90
32522;DHT22;18963;51.504;5.316;2023-05-10T09:45:33;17.10;99.90
32522;DHT22;18963;51.504;5.316;2023-05-10T09:48:00;17.00;99.90
32522;DHT22;18963;51.504;5.316;2023-05-10T09:50:26;16.90;99.90
32522;DHT22;18963;51.504;5.316;2023-05-10T09:52:57;16.80;99.90
32522;DHT22;18963;51.504;5.316;2023-05-10T09:55:27;16.90;99.90
32522;DHT22;18963;51.504;5.316;2023-05-10T09:58:02;17.00;99.90
32522;DHT22;18963;51.504;5.316;2023-05-10T10:00:34;17.10;99.90
32522;DHT22;18963;51.504;5.316;2023-05-10T10:03:01;17.00;99.90
32522;DHT22;18963;51.504;5.316;2023-05-10T10:05:34;17.10;99.90
32522;DHT22;18963;51.504;5.316;2023-05-10T10:08:03;17.30;99.90
32522;DHT22;18963;51.504;5.316;2023-05-10T10:10:31;17.60;99.90
32522;DHT22;18963;51.504;5.316;2023-05-10T10:12:57;18.00;99.90
32522;DHT22;18963;51.504;5.316;2023-05-10T10:15:23;18.30;99.90
32522;DHT22;18963;51.504;5.316;2023-05-10T10:17:49;18.60;99.90
32522;DHT22;18963;51.504;5.316;2023-05-10T10:20:16;18.90;99.90
32522;DHT22;18963;51.504;5.316;2023-05-10T10:22:42;19.00;99.90
32522;DHT22;18963;51.504;5.316;2023-05-10T10:25:10;19.00;99.90
32522;DHT22;18963;51.504;5.316;2023-05-10T10:27:53;19.10;99.90
32522;DHT22;18963;51.504;5.316;2023-05-10T10:30:43;19.00;99.90
32522;DHT22;18963;51.504;5.316;2023-05-10T10:33:43;18.90;99.90
32522;DHT22;18963;51.504;5.316;2023-05-10T10:36:15;18.80;99.90
32522;DHT22;18963;51.504;5.316;2023-05-10T10:41:35;18.40;99.90
32522;DHT22;18963;51.504;5.316;2023-05-10T10:57:42;18.70;99.90
32522;DHT22;18963;51.504;5.316;2023-05-10T11:08:16;18.40;99.90
32522;DHT22;18963;51.504;5.316;2023-05-10T11:11:12;18.50;99.90
32522;DHT22;18963;51.504;5.316;2023-05-10T11:13:41;18.70;99.90
32522;DHT22;18963;51.504;5.316;2023-05-10T11:16:18;18.80;99.90
32522;DHT22;18963;51.504;5.316;2023-05-10T11:18:56;18.80;99.90
32522;DHT22;18963;51.504;5.316;2023-05-10T11:21:22;18.70;99.90
32522;DHT22;18963;51.504;5.316;2023-05-10T11:23:55;18.40;99.90
32522;DHT22;18963;51.504;5.316;2023-05-10T11:26:30;18.00;99.90
32522;DHT22;18963;51.504;5.316;2023-05-10T11:28:56;17.70;99.90
32522;DHT22;18963;51.504;5.316;2023-05-10T11:31:23;17.40;99.90
32522;DHT22;18963;51.504;5.316;2023-05-10T11:33:53;17.10;99.90
32522;DHT22;18963;51.504;5.316;2023-05-10T11:36:21;16.70;99.90
32522;DHT22;18963;51.504;5.316;2023-05-10T11:38:47;16.40;99.90
32522;DHT22;18963;51.504;5.316;2023-05-10T11:41:17;16.10;99.90
32522;DHT22;18963;51.504;5.316;2023-05-10T11:43:46;15.90;99.90
32522;DHT22;18963;51.504;5.316;2023-05-10T11:46:13;15.60;99.90
32522;DHT22;18963;51.504;5.316;2023-05-10T11:48:39;15.20;99.90
32522;DHT22;18963;51.504;5.316;2023-05-10T11:51:06;15.00;99.90
32522;DHT22;18963;51.504;5.316;2023-05-10T11:53:33;14.80;99.90
32522;DHT22;18963;51.504;5.316;2023-05-10T11:56:08;14.60;99.90
32522;DHT22;18963;51.504;5.316;2023-05-10T11:58:35;14.30;99.90
32522;DHT22;18963;51.504;5.316;2023-05-10T12:01:02;14.20;99.90
32522;DHT22;18963;51.504;5.316;2023-05-10T12:03:28;14.00;99.90
32522;DHT22;18963;51.504;5.316;2023-05-10T12:05:55;14.00;99.90
32522;DHT22;18963;51.504;5.316;2023-05-10T12:08:25;13.90;99.90
32522;DHT22;18963;51.504;5.316;2023-05-10T12:10:52;13.80;99.90
32522;DHT22;18963;51.504;5.316;2023-05-10T12:13:20;13.80;99.90
32522;DHT22;18963;51.504;5.316;2023-05-10T12:15:46;13.80;99.90
32522;DHT22;18963;51.504;5.316;2023-05-10T12:18:13;13.80;99.90
32522;DHT22;18963;51.504;5.316;2023-05-10T12:20:39;13.80;99.90
32522;DHT22;18963;51.504;5.316;2023-05-10T12:23:07;13.80;99.90
32522;DHT22;18963;51.504;5.316;2023-05-10T12:25:34;13.80;99.90
32522;DHT22;18963;51.504;5.316;2023-05-10T12:28:03;13.80;99.90
32522;DHT22;18963;51.504;5.316;2023-05-10T12:30:31;13.70;99.90
32522;DHT22;18963;51.504;5.316;2023-05-10T12:33:07;13.70;99.90
32522;DHT22;18963;51.504;5.316;2023-05-10T12:35:33;13.60;99.90
32522;DHT22;18963;51.504;5.316;2023-05-10T12:38:44;13.60;99.90
32522;DHT22;18963;51.504;5.316;2023-05-10T12:41:14;13.50;99.90
32522;DHT22;18963;51.504;5.316;2023-05-10T12:43:40;13.50;99.90
32522;DHT22;18963;51.504;5.316;2023-05-10T12:48:32;13.40;99.90
32522;DHT22;18963;51.504;5.316;2023-05-10T12:50:59;13.40;99.90
32522;DHT22;18963;51.504;5.316;2023-05-10T12:53:25;13.40;99.90
32522;DHT22;18963;51.504;5.316;2023-05-10T12:55:51;13.50;99.90
32522;DHT22;18963;51.504;5.316;2023-05-10T12:58:17;13.50;99.90
32522;DHT22;18963;51.504;5.316;2023-05-10T13:00:42;13.60;99.90
32522;DHT22;18963;51.504;5.316;2023-05-10T13:03:09;13.70;99.90
32522;DHT22;18963;51.504;5.316;2023-05-10T13:05:36;13.80;99.90
32522;DHT22;18963;51.504;5.316;2023-05-10T13:08:02;13.90;99.90
32522;DHT22;18963;51.504;5.316;2023-05-10T13:10:30;14.00;99.90
32522;DHT22;18963;51.504;5.316;2023-05-10T13:12:56;14.10;99.90
32522;DHT22;18963;51.504;5.316;2023-05-10T13:15:22;14.10;99.90
32522;DHT22;18963;51.504;5.316;2023-05-10T13:17:48;14.10;99.90
32522;DHT22;18963;51.504;5.316;2023-05-10T13:20:13;14.10;99.90
32522;DHT22;18963;51.504;5.316;2023-05-10T13:22:40;14.10;99.90
32522;DHT22;18963;51.504;5.316;2023-05-10T13:25:06;14.10;99.90
32522;DHT22;18963;51.504;5.316;2023-05-10T13:27:32;14.10;99.90
32522;DHT22;18963;51.504;5.316;2023-05-10T13:29:57;14.00;99.90
32522;DHT22;18963;51.504;5.316;2023-05-10T13:32:25;13.90;99.90
32522;DHT22;18963;51.504;5.316;2023-05-10T13:34:51;13.90;99.90
32522;DHT22;18963;51.504;5.316;2023-05-10T13:37:16;13.80;99.90
32522;DHT22;18963;51.504;5.316;2023-05-10T13:39:42;13.80;99.90
32522;DHT22;18963;51.504;5.316;2023-05-10T13:42:08;13.70;99.90
32522;DHT22;18963;51.504;5.316;2023-05-10T13:44:33;13.70;99.90
32522;DHT22;18963;51.504;5.316;2023-05-10T13:46:59;13.70;99.90
32522;DHT22;18963;51.504;5.316;2023-05-10T13:49:25;13.70;99.90
32522;DHT22;18963;51.504;5.316;2023-05-10T13:51:50;13.60;99.90
32522;DHT22;18963;51.504;5.316;2023-05-10T13:54:16;13.60;99.90
32522;DHT22;18963;51.504;5.316;2023-05-10T13:56:44;13.70;99.90
32522;DHT22;18963;51.504;5.316;2023-05-10T13:59:10;13.70;99.90
32522;DHT22;18963;51.504;5.316;2023-05-10T14:01:36;13.70;99.90
32522;DHT22;18963;51.504;5.316;2023-05-10T14:04:02;13.80;99.90
32522;DHT22;18963;51.504;5.316;2023-05-10T14:06:27;13.80;99.90
32522;DHT22;18963;51.504;5.316;2023-05-10T14:08:53;13.90;99.90
32522;DHT22;18963;51.504;5.316;2023-05-10T14:11:19;13.90;99.90
32522;DHT22;18963;51.504;5.316;2023-05-10T14:13:45;13.90;99.90
32522;DHT22;18963;51.504;5.316;2023-05-10T14:16:10;13.80;99.90
32522;DHT22;18963;51.504;5.316;2023-05-10T14:18:37;13.80;99.90
32522;DHT22;18963;51.504;5.316;2023-05-10T14:21:03;13.80;99.90
32522;DHT22;18963;51.504;5.316;2023-05-10T14:23:29;13.80;99.90
32522;DHT22;18963;51.504;5.316;2023-05-10T14:25:55;13.70;99.90
32522;DHT22;18963;51.504;5.316;2023-05-10T14:28:21;13.70;99.90
32522;DHT22;18963;51.504;5.316;2023-05-10T14:30:48;13.70;99.90
32522;DHT22;18963;51.504;5.316;2023-05-10T14:33:13;13.70;99.90
32522;DHT22;18963;51.504;5.316;2023-05-10T14:35:39;13.70;99.90
32522;DHT22;18963;51.504;5.316;2023-05-10T14:38:05;13.70;99.90
32522;DHT22;18963;51.504;5.316;2023-05-10T14:40:31;13.60;99.90
32522;DHT22;18963;51.504;5.316;2023-05-10T14:42:56;13.60;99.90
32522;DHT22;18963;51.504;5.316;2023-05-10T14:45:22;13.70;99.90
32522;DHT22;18963;51.504;5.316;2023-05-10T14:47:48;13.70;99.90
32522;DHT22;18963;51.504;5.316;2023-05-10T14:50:14;13.70;99.90
32522;DHT22;18963;51.504;5.316;2023-05-10T14:52:41;13.70;99.90
32522;DHT22;18963;51.504;5.316;2023-05-10T14:55:07;13.70;99.90
32522;DHT22;18963;51.504;5.316;2023-05-10T14:57:33;13.60;99.90
32522;DHT22;18963;51.504;5.316;2023-05-10T14:59:59;13.50;99.90
32522;DHT22;18963;51.504;5.316;2023-05-10T15:02:24;13.50;99.90
32522;DHT22;18963;51.504;5.316;2023-05-10T15:04:50;13.40;99.90
32522;DHT22;18963;51.504;5.316;2023-05-10T15:07:16;13.40;99.90
32522;DHT22;18963;51.504;5.316;2023-05-10T15:09:44;13.40;99.90
32522;DHT22;18963;51.504;5.316;2023-05-10T15:12:09;13.50;99.90
32522;DHT22;18963;51.504;5.316;2023-05-10T15:14:35;13.50;99.90
32522;DHT22;18963;51.504;5.316;2023-05-10T15:17:01;13.50;99.90
32522;DHT22;18963;51.504;5.316;2023-05-10T15:19:27;13.50;99.90
32522;DHT22;18963;51.504;5.316;2023-05-10T15:21:54;13.50;99.90
32522;DHT22;18963;51.504;5.316;2023-05-10T15:24:21;13.40;99.90
32522;DHT22;18963;51.504;5.316;2023-05-10T15:26:46;13.40;99.90
32522;DHT22;18963;51.504;5.316;2023-05-10T15:29:12;13.40;99.90
32522;DHT22;18963;51.504;5.316;2023-05-10T15:31:47;13.40;99.90
32522;DHT22;18963;51.504;5.316;2023-05-10T15:34:14;13.50;99.90
32522;DHT22;18963;51.504;5.316;2023-05-10T15:36:40;13.50;99.90
32522;DHT22;18963;51.504;5.316;2023-05-10T15:39:05;13.60;99.90
32522;DHT22;18963;51.504;5.316;2023-05-10T15:41:31;13.60;99.90
32522;DHT22;18963;51.504;5.316;2023-05-10T15:43:57;13.60;99.90
32522;DHT22;18963;51.504;5.316;2023-05-10T15:46:25;13.60;99.90
32522;DHT22;18963;51.504;5.316;2023-05-10T15:48:51;13.60;99.90
32522;DHT22;18963;51.504;5.316;2023-05-10T15:51:17;13.50;99.90
32522;DHT22;18963;51.504;5.316;2023-05-10T15:53:44;13.50;99.90
32522;DHT22;18963;51.504;5.316;2023-05-10T15:56:10;13.50;99.90
32522;DHT22;18963;51.504;5.316;2023-05-10T15:58:37;13.50;99.90
32522;DHT22;18963;51.504;5.316;2023-05-10T16:01:03;13.50;99.90
32522;DHT22;18963;51.504;5.316;2023-05-10T16:03:30;13.50;99.90
32522;DHT22;18963;51.504;5.316;2023-05-10T16:05:55;13.40;99.90
32522;DHT22;18963;51.504;5.316;2023-05-10T16:08:21;13.40;99.90
32522;DHT22;18963;51.504;5.316;2023-05-10T16:10:47;13.40;99.90
32522;DHT22;18963;51.504;5.316;2023-05-10T16:13:13;13.30;99.90
32522;DHT22;18963;51.504;5.316;2023-05-10T16:15:40;13.30;99.90